Time;durP1;ratioP1;P1;durP2;ratioP2;P2;SDS_P1;SDS_P2;PMS_P1;PMS_P2;Temp;Humidity;BMP_temperature;BMP_pressure;BME280_temperature;BME280_humidity;BME280_pressure;Samples;Min_cycle;Max_cycle;Signal;HPM_P1;HPM_P2
2022/02/06 00:00:11;;;;;;;3.50;1.02;;;;;;;16.97;47.16;100250.34;5073751;28;20467;-78
2022/02/06 00:02:42;;;;;;;2.67;0.88;;;;;;;16.83;47.45;100239.84;5072433;28;20077;-71
2022/02/06 00:05:10;;;;;;;2.70;1.00;;;;;;;17.16;46.47;100230.97;5074050;28;20029;-72
2022/02/06 00:07:36;;;;;;;3.25;1.05;;;;;;;17.19;46.26;100227.47;5073675;28;20024;-71
2022/02/06 00:10:02;;;;;;;3.83;1.10;;;;;;;16.93;46.78;100221.91;5073438;28;20471;-71
2022/02/06 00:12:28;;;;;;;2.92;1.25;;;;;;;16.85;46.83;100225.69;5073503;28;20020;-72
2022/02/06 00:14:54;;;;;;;6.35;1.10;;;;;;;16.68;47.03;100221.41;5072596;28;20089;-71
2022/02/06 00:17:20;;;;;;;4.70;1.08;;;;;;;16.65;47.11;100209.16;5073431;28;20025;-72
2022/02/06 00:19:45;;;;;;;2.65;1.00;;;;;;;16.90;46.12;100206.88;5073479;28;20489;-71
2022/02/06 00:22:26;;;;;;;2.63;0.50;;;;;;;16.29;47.51;100209.66;5073581;28;20017;-71
2022/02/06 00:25:10;;;;;;;3.70;1.02;;;;;;;16.90;46.21;100217.91;5073398;28;20025;-77
2022/02/06 00:27:52;;;;;;;2.90;0.70;;;;;;;16.79;46.26;100214.19;5073190;28;20371;-71
2022/02/06 00:32:51;;;;;;;3.25;1.52;;;;;;;16.97;45.73;100206.19;5073194;28;20025;-76
2022/02/06 00:38:08;;;;;;;4.25;1.00;;;;;;;16.76;46.43;100183.75;5073069;28;20016;-72
2022/02/06 00:43:00;;;;;;;3.50;1.00;;;;;;;16.94;45.71;100176.59;5073004;28;20170;-71
2022/02/06 00:45:26;;;;;;;5.20;1.10;;;;;;;17.17;45.16;100182.88;5072869;28;20070;-80
2022/02/06 00:47:51;;;;;;;4.10;1.10;;;;;;;16.73;46.13;100176.22;5072726;28;20020;-72
2022/02/06 00:50:17;;;;;;;4.05;1.02;;;;;;;16.86;46.10;100181.19;5073003;28;20059;-72
2022/02/06 00:52:53;;;;;;;2.40;1.08;;;;;;;16.89;46.19;100172.16;5072734;28;20017;-72
2022/02/06 00:55:19;;;;;;;5.63;1.02;;;;;;;16.91;46.06;100166.28;5072720;28;20029;-72
2022/02/06 00:57:44;;;;;;;3.05;0.80;;;;;;;16.45;47.41;100163.47;5072601;28;20031;-72
2022/02/06 01:00:10;;;;;;;2.88;1.00;;;;;;;16.89;46.27;100160.34;5072525;28;20035;-71
2022/02/06 01:02:36;;;;;;;3.70;0.90;;;;;;;17.14;45.79;100158.75;5072601;28;20060;-76
2022/02/06 01:05:02;;;;;;;1.55;0.80;;;;;;;17.24;45.49;100151.03;5072795;28;20048;-72
2022/02/06 01:07:27;;;;;;;2.47;0.85;;;;;;;17.14;45.81;100128.38;5072743;28;20025;-71
2022/02/06 01:09:53;;;;;;;3.35;0.80;;;;;;;17.31;45.15;100131.81;5072847;28;20551;-81
2022/02/06 01:12:23;;;;;;;5.63;0.93;;;;;;;17.15;45.78;100130.00;5072501;28;20364;-79
2022/02/06 01:17:33;;;;;;;3.05;1.00;;;;;;;17.04;46.05;100123.50;5072739;28;20090;-71
2022/02/06 01:20:16;;;;;;;4.05;0.70;;;;;;;17.04;46.01;100123.50;5072412;28;20082;-72
2022/02/06 01:22:50;;;;;;;4.28;1.17;;;;;;;17.15;45.76;100107.91;5071105;28;20103;-71
2022/02/06 01:25:23;;;;;;;4.25;1.17;;;;;;;17.08;45.67;100102.28;5365922;22;20062;-72
2022/02/06 01:28:04;;;;;;;3.58;0.80;;;;;;;16.92;46.36;100094.16;5030949;28;20041;-70
2022/02/06 01:30:53;;;;;;;8.23;1.13;;;;;;;16.70;46.51;100083.97;5031143;28;20403;-70
2022/02/06 01:33:30;;;;;;;5.60;1.38;;;;;;;16.83;46.51;100079.81;5032548;28;20025;-70
2022/02/06 01:38:34;;;;;;;3.72;1.00;;;;;;;17.18;45.64;100062.19;5032504;28;20032;-70
2022/02/06 01:41:13;;;;;;;4.68;1.42;;;;;;;17.41;45.08;100060.13;5031198;28;20079;-70
2022/02/06 01:43:45;;;;;;;4.83;1.20;;;;;;;17.31;45.19;100048.97;5032320;28;20072;-70
2022/02/06 02:31:27;;;;;;;1.30;0.77;;;;;;;17.19;46.06;100055.50;5031888;28;20059;-70
2022/02/06 02:47:50;;;;;;;1.95;0.63;;;;;;;16.22;47.45;100022.09;5035458;28;20481;-70
2022/02/06 02:50:22;;;;;;;2.65;0.63;;;;;;;16.51;46.47;100007.59;5035204;28;20022;-70
2022/02/06 02:58:14;;;;;;;3.80;0.52;;;;;;;16.18;47.12;100001.94;5035205;28;20060;-70
2022/02/06 03:03:16;;;;;;;2.28;1.08;;;;;;;15.94;47.47;100011.34;5035439;28;20025;-70
2022/02/06 03:05:43;;;;;;;1.65;0.50;;;;;;;16.24;46.40;100014.22;5033820;28;20026;-70
2022/02/06 03:08:10;;;;;;;3.15;0.95;;;;;;;16.17;46.74;100016.88;5034954;28;20108;-70
2022/02/06 03:10:37;;;;;;;4.28;1.17;;;;;;;16.22;46.58;100013.81;5034847;28;20025;-70
2022/02/06 03:13:07;;;;;;;3.53;1.08;;;;;;;16.37;45.98;100004.59;5034905;28;20037;-70
2022/02/06 03:15:47;;;;;;;2.97;0.70;;;;;;;15.78;47.68;100009.50;5035151;28;20391;-70
2022/02/06 03:18:19;;;;;;;2.72;1.02;;;;;;;16.25;46.51;100013.09;5034889;28;20022;-70
2022/02/06 03:20:46;;;;;;;4.65;0.85;;;;;;;16.36;46.27;100009.31;5034732;28;20042;-70
2022/02/06 03:23:13;;;;;;;2.83;0.90;;;;;;;16.40;45.89;100014.91;5034714;28;20029;-70
2022/02/06 03:25:53;;;;;;;4.70;0.85;;;;;;;16.27;46.13;100025.34;5034384;28;20044;-70
2022/02/06 03:28:24;;;;;;;5.28;1.67;;;;;;;16.04;46.40;100017.06;5033408;28;20426;-70
2022/02/06 03:30:51;;;;;;;6.32;1.15;;;;;;;16.18;46.31;100027.53;5034486;28;20025;-70
2022/02/06 03:33:17;;;;;;;5.00;1.40;;;;;;;16.33;45.68;100029.38;5049870;28;20026;-70
2022/02/06 03:35:43;;;;;;;2.92;1.02;;;;;;;16.30;45.64;100018.28;5034476;28;20096;-70
2022/02/06 03:38:10;;;;;;;2.67;1.00;;;;;;;16.17;46.07;100022.38;5034444;28;20161;-70
2022/02/06 03:40:42;;;;;;;3.78;1.10;;;;;;;16.50;45.32;100011.53;5034390;28;20540;-70
2022/02/06 03:45:50;;;;;;;9.70;1.73;;;;;;;16.37;45.80;100018.41;5034304;28;20521;-70
2022/02/06 03:48:22;;;;;;;8.50;1.30;;;;;;;16.36;45.42;100030.59;5034267;28;20026;-70
2022/02/06 03:50:51;;;;;;;7.60;1.17;;;;;;;16.48;45.38;100024.88;5034146;28;20513;-70
2022/02/06 03:53:20;;;;;;;7.43;1.33;;;;;;;16.47;45.62;100025.25;5034123;28;20017;-70
2022/02/06 03:55:48;;;;;;;4.70;1.30;;;;;;;16.64;44.95;100010.94;5034088;28;20053;-70
2022/02/06 03:58:14;;;;;;;4.85;1.20;;;;;;;16.28;46.02;100018.66;5033925;28;20107;-70
2022/02/06 04:00:40;;;;;;;4.63;1.55;;;;;;;16.55;45.15;100013.16;5034030;28;20073;-70
2022/02/06 04:03:06;;;;;;;7.97;1.48;;;;;;;16.53;45.00;100018.25;5033965;28;20036;-70
2022/02/06 04:05:32;;;;;;;11.13;2.17;;;;;;;16.32;45.57;100027.78;5033874;28;20026;-70
2022/02/06 04:07:58;;;;;;;8.98;1.55;;;;;;;16.22;45.72;100028.38;5033849;28;20029;-70
2022/02/06 04:10:31;;;;;;;7.35;1.55;;;;;;;16.50;44.79;100030.81;5032485;28;20501;-70
2022/02/06 04:12:58;;;;;;;9.77;1.95;;;;;;;16.41;44.72;100024.78;5033761;28;20021;-70
2022/02/06 04:15:36;;;;;;;11.07;2.13;;;;;;;16.23;45.06;100027.22;5033700;28;20030;-70
2022/02/06 04:18:17;;;;;;;9.18;1.63;;;;;;;16.02;45.70;100037.88;5032423;28;20084;-70
2022/02/06 04:20:43;;;;;;;9.52;1.88;;;;;;;16.55;44.32;100015.91;5033697;28;20025;-70
2022/02/06 04:23:09;;;;;;;7.60;1.63;;;;;;;16.05;45.84;100026.91;5033505;28;20116;-70
2022/02/06 04:25:36;;;;;;;8.98;2.13;;;;;;;16.24;44.76;100017.00;5033328;28;20041;-70
2022/02/06 04:28:03;;;;;;;9.15;2.70;;;;;;;16.62;44.07;100014.09;5033488;28;20029;-70
2022/02/06 04:30:29;;;;;;;5.82;1.88;;;;;;;16.54;44.27;100006.84;5032070;28;20472;-70
2022/02/06 04:32:55;;;;;;;3.88;1.20;;;;;;;16.79;43.66;100007.25;5033378;28;20041;-70
2022/02/06 04:35:29;;;;;;;2.92;0.82;;;;;;;16.58;44.33;100015.97;5033256;28;20032;-70
2022/02/06 04:38:31;;;;;;;5.28;1.10;;;;;;;16.68;44.27;100019.25;5033295;28;20032;-70
2022/02/06 04:41:09;;;;;;;5.60;1.48;;;;;;;16.60;44.68;100007.31;5033116;28;20505;-70
2022/02/06 05:16:38;;;;;;;2.55;0.85;;;;;;;15.59;46.63;100001.25;4971676;28;20039;-70
2022/02/06 05:30:03;;;;;;;5.57;1.00;;;;;;;15.32;45.43;100013.28;5032484;28;20428;-70
2022/02/06 05:32:37;;;;;;;3.53;1.25;;;;;;;15.15;45.03;100022.78;5032474;28;20022;-70
2022/02/06 05:35:03;;;;;;;1.75;0.90;;;;;;;14.55;46.33;100003.78;5032564;28;20022;-70
2022/02/06 05:37:29;;;;;;;5.00;1.00;;;;;;;14.59;46.13;100006.63;5032425;28;20060;-70
2022/02/06 05:39:55;;;;;;;5.63;1.00;;;;;;;14.68;46.02;100027.25;5030650;28;20029;-70
2022/02/06 05:42:21;;;;;;;3.97;0.90;;;;;;;14.80;45.66;100042.03;5031610;28;20494;-70
2022/02/06 05:44:56;;;;;;;5.68;0.65;;;;;;;14.89;45.29;100032.44;5032371;28;20084;-70
2022/02/06 05:47:23;;;;;;;3.63;1.23;;;;;;;14.78;45.88;100033.34;5032371;28;20029;-70
2022/02/06 05:49:49;;;;;;;2.65;0.90;;;;;;;14.54;46.45;100024.16;5031070;28;20132;-70
2022/02/06 05:52:16;;;;;;;4.25;1.38;;;;;;;14.96;45.16;100031.78;5030983;28;20113;-70
2022/02/06 05:54:41;;;;;;;6.05;1.52;;;;;;;14.99;45.24;100034.63;5032314;28;20391;-70
2022/02/06 05:57:07;;;;;;;3.95;1.17;;;;;;;15.04;45.17;100035.50;5032261;28;20105;-70
2022/02/06 05:59:33;;;;;;;4.35;1.33;;;;;;;15.02;45.43;100041.38;5032304;28;20025;-70
2022/02/06 06:01:58;;;;;;;6.60;2.65;;;;;;;14.82;45.40;100046.03;5032267;28;20109;-70
2022/02/06 06:04:24;;;;;;;7.63;1.58;;;;;;;14.91;45.55;100049.38;5032266;28;20057;-70
2022/02/06 06:06:50;;;;;;;5.15;1.13;;;;;;;15.24;44.75;100048.13;5032163;28;20543;-70
2022/02/06 06:09:16;;;;;;;4.68;1.88;;;;;;;15.30;44.47;100038.44;5032130;28;20065;-70
2022/02/06 06:11:42;;;;;;;10.50;1.73;;;;;;;14.93;45.49;100044.31;5032121;28;20029;-70
2022/02/06 06:14:07;;;;;;;7.32;2.50;;;;;;;15.28;45.09;100046.25;5035420;28;20049;-70
2022/02/06 06:16:33;;;;;;;5.25;1.98;;;;;;;15.50;44.46;100031.78;5036255;28;20400;-70
2022/02/06 06:19:01;;;;;;;6.53;1.65;;;;;;;15.42;44.69;100027.28;5035825;28;20026;-70
2022/02/06 06:21:29;;;;;;;9.48;3.03;;;;;;;15.54;44.48;100015.31;5035861;28;20475;-71
2022/02/06 06:23:56;;;;;;;8.65;2.13;;;;;;;15.65;44.24;100032.88;5034528;28;20457;-70
2022/02/06 06:26:24;;;;;;;4.68;1.70;;;;;;;15.23;44.92;100019.81;5035559;28;20041;-69
2022/02/06 06:28:50;;;;;;;7.97;1.67;;;;;;;15.48;44.58;100016.75;5034441;28;20443;-69
2022/02/06 06:31:16;;;;;;;8.80;2.63;;;;;;;15.15;45.15;100009.03;5035842;28;20053;-70
2022/02/06 06:33:42;;;;;;;12.20;2.30;;;;;;;15.20;44.51;100023.28;5035889;28;20487;-69
2022/02/06 06:36:07;;;;;;;11.65;2.55;;;;;;;15.23;44.63;100032.78;5035574;28;20529;-69
2022/02/06 06:38:34;;;;;;;12.15;3.10;;;;;;;15.19;44.34;100020.91;5035526;28;20029;-70
2022/02/06 06:41:00;;;;;;;8.18;1.88;;;;;;;14.96;44.66;100013.34;5035585;28;20030;-70
2022/02/06 06:43:26;;;;;;;7.65;2.00;;;;;;;15.04;44.40;100003.31;5035374;28;20032;-70
2022/02/06 06:45:52;;;;;;;12.30;2.22;;;;;;;14.84;44.95;100027.22;5035439;28;20033;-70
2022/02/06 06:48:18;;;;;;;9.95;2.63;;;;;;;14.92;44.23;100028.19;5035599;28;20053;-70
2022/02/06 06:50:43;;;;;;;10.35;2.10;;;;;;;14.79;44.63;100030.25;5035208;28;20391;-70
2022/02/06 06:53:11;;;;;;;7.03;1.70;;;;;;;14.76;44.58;100036.47;5035280;28;20033;-70
2022/02/06 06:55:38;;;;;;;7.75;2.03;;;;;;;14.95;44.01;100028.25;5035238;28;20116;-70
2022/02/06 06:58:14;;;;;;;7.70;2.00;;;;;;;14.13;45.55;100031.78;5035165;28;20102;-70
2022/02/06 07:00:54;;;;;;;7.55;2.30;;;;;;;14.46;44.40;100021.63;5035262;28;20486;-70
2022/02/06 07:03:21;;;;;;;7.47;1.60;;;;;;;14.61;43.73;100027.09;5035224;28;20081;-70
2022/02/06 07:05:47;;;;;;;7.40;1.77;;;;;;;14.36;44.20;100042.97;5034969;28;20476;-69
2022/02/06 07:08:15;;;;;;;6.70;1.77;;;;;;;14.38;44.13;100028.88;5035268;28;20032;-70
2022/02/06 07:10:41;;;;;;;11.95;3.70;;;;;;;14.40;44.04;99994.38;5034883;28;20040;-70
2022/02/06 07:13:07;;;;;;;6.28;2.03;;;;;;;14.46;43.64;100010.63;5034996;28;20028;-69
2022/02/06 07:15:33;;;;;;;7.85;1.48;;;;;;;14.35;43.83;100002.88;5034792;28;20022;-70
2022/02/06 07:17:58;;;;;;;7.10;1.80;;;;;;;14.32;44.00;100038.53;5034818;28;20391;-70
2022/02/06 07:20:25;;;;;;;11.93;2.78;;;;;;;14.33;43.68;100029.91;5035013;28;20120;-70
2022/02/06 07:22:51;;;;;;;13.60;3.38;;;;;;;14.71;42.92;100033.97;5034692;28;20387;-70
2022/02/06 07:25:16;;;;;;;7.93;2.08;;;;;;;14.23;44.10;100043.41;5034729;28;20028;-70
2022/02/06 07:27:47;;;;;;;12.55;2.40;;;;;;;14.48;43.55;100052.28;5034620;28;20038;-70
2022/02/06 07:30:13;;;;;;;7.72;2.10;;;;;;;14.51;43.51;100057.88;5034813;28;20025;-70
2022/02/06 07:32:39;;;;;;;15.20;3.00;;;;;;;14.20;44.15;100077.84;5034510;28;20444;-70
2022/02/06 07:35:08;;;;;;;10.27;2.28;;;;;;;14.29;43.89;100067.53;5033162;28;20064;-70
2022/02/06 07:37:35;;;;;;;11.82;2.83;;;;;;;14.40;43.47;100057.56;5034441;28;20068;-70
2022/02/06 07:40:01;;;;;;;11.93;2.65;;;;;;;14.74;42.95;100069.03;5034750;28;20028;-69
2022/02/06 07:42:27;;;;;;;10.70;3.08;;;;;;;14.33;43.63;100075.84;5034336;28;20399;-70
2022/02/06 07:44:52;;;;;;;11.05;2.88;;;;;;;14.57;43.10;100072.94;5034606;28;20029;-70
2022/02/06 07:47:23;;;;;;;8.70;2.38;;;;;;;14.43;43.55;100086.28;5034230;28;20089;-70
2022/02/06 07:49:51;;;;;;;11.23;3.40;;;;;;;14.70;42.93;100092.88;5034401;28;20387;-71
2022/02/06 07:52:22;;;;;;;14.80;3.90;;;;;;;14.46;43.41;100104.06;5034466;28;20032;-70
2022/02/06 07:54:49;;;;;;;11.68;2.90;;;;;;;14.74;43.06;100099.28;5033794;28;20083;-72
2022/02/06 07:57:15;;;;;;;10.50;3.25;;;;;;;14.48;43.78;100099.00;5034185;28;20093;-70
2022/02/06 07:59:41;;;;;;;10.50;2.75;;;;;;;14.79;43.35;100117.44;5033981;28;20147;-70
2022/02/06 08:02:07;;;;;;;16.58;3.08;;;;;;;14.88;42.81;100110.59;5033868;28;20079;-70
2022/02/06 08:04:35;;;;;;;18.23;3.38;;;;;;;14.81;43.58;100121.47;5034113;28;20083;-70
2022/02/06 08:07:01;;;;;;;10.23;2.80;;;;;;;14.51;44.25;100123.84;5032476;28;20026;-70
2022/02/06 08:12:12;;;;;;;11.18;3.53;;;;;;;14.55;44.85;100126.69;5033821;28;20092;-70
2022/02/06 08:14:52;;;;;;;15.35;3.28;;;;;;;14.76;44.15;100102.47;5030299;28;20433;-70
2022/02/06 08:17:26;;;;;;;13.45;2.80;;;;;;;14.74;44.39;100107.53;5013847;28;20025;-70
2022/02/06 08:19:53;;;;;;;12.98;2.85;;;;;;;14.81;44.44;100115.97;5012695;28;20030;-70
2022/02/06 08:22:19;;;;;;;11.32;3.75;;;;;;;14.74;44.81;100107.53;5013966;28;20022;-69
2022/02/06 08:24:45;;;;;;;11.80;2.88;;;;;;;14.57;45.35;100116.13;5013999;28;20369;-70
2022/02/06 08:27:11;;;;;;;13.45;2.92;;;;;;;14.54;45.40;100086.59;5013603;28;20432;-70
2022/02/06 08:29:39;;;;;;;13.77;3.65;;;;;;;14.70;44.91;100099.19;5013609;28;20033;-72
2022/02/06 08:32:06;;;;;;;8.82;2.75;;;;;;;14.49;45.39;100119.84;5012307;28;20034;-70
2022/02/06 08:34:31;;;;;;;13.55;3.10;;;;;;;14.72;44.97;100112.56;5013477;28;20025;-70
2022/02/06 08:36:59;;;;;;;9.57;2.47;;;;;;;14.69;44.79;100119.59;5013103;28;20108;-70
2022/02/06 08:39:26;;;;;;;15.05;2.80;;;;;;;15.06;44.02;100143.25;5012242;28;20115;-70
2022/02/06 08:41:52;;;;;;;10.05;2.40;;;;;;;14.41;45.83;100146.31;5013501;28;20435;-70
2022/02/06 08:44:18;;;;;;;12.63;2.78;;;;;;;14.56;45.39;100153.03;5013452;28;20034;-70
2022/02/06 08:46:43;;;;;;;17.42;3.70;;;;;;;14.90;44.46;100144.06;5013415;28;20088;-70
2022/02/06 08:49:09;;;;;;;10.10;2.40;;;;;;;15.19;43.38;100137.28;5013298;28;20030;-70
2022/02/06 08:51:35;;;;;;;9.63;2.78;;;;;;;14.90;44.11;100124.81;5013129;28;20037;-70
2022/02/06 08:54:00;;;;;;;9.25;3.17;;;;;;;15.22;43.43;100131.06;5028499;28;20025;-70
2022/02/06 08:56:27;;;;;;;8.13;3.00;;;;;;;14.82;44.31;100136.81;5013475;28;20456;-71
2022/02/06 08:58:53;;;;;;;10.38;2.42;;;;;;;14.98;43.94;100132.09;5013458;28;20034;-70
2022/02/06 09:01:19;;;;;;;11.70;2.60;;;;;;;15.06;43.82;100137.75;5021577;28;20036;-76
2022/02/06 09:03:44;;;;;;;8.25;2.67;;;;;;;14.95;43.98;100126.47;5026118;28;20033;-74
2022/02/06 09:06:12;;;;;;;13.95;3.70;;;;;;;14.99;43.82;100136.41;5023495;28;20434;-70
2022/02/06 09:08:38;;;;;;;16.55;4.60;;;;;;;14.90;43.91;100135.81;5030511;28;20021;-70
2022/02/06 09:11:04;;;;;;;13.80;5.18;;;;;;;14.95;43.62;100124.53;5032542;28;20034;-75
2022/02/06 09:13:30;;;;;;;11.63;3.30;;;;;;;14.77;44.09;100120.56;5032515;28;20033;-71
2022/02/06 09:15:56;;;;;;;8.48;2.50;;;;;;;14.20;45.21;100127.31;5032613;28;20091;-80
2022/02/06 09:18:22;;;;;;;10.82;2.75;;;;;;;14.70;44.25;100136.88;5032475;28;20438;-79
2022/02/06 09:20:47;;;;;;;8.80;2.40;;;;;;;14.45;44.81;100141.72;5032440;28;20052;-70
2022/02/06 09:23:13;;;;;;;12.40;2.70;;;;;;;14.62;44.41;100146.09;5032515;28;20056;-70
2022/02/06 09:25:39;;;;;;;14.70;2.33;;;;;;;14.82;43.96;100147.81;5032523;28;20057;-70
2022/02/06 09:28:04;;;;;;;13.18;3.13;;;;;;;15.07;43.45;100145.66;5032447;28;20041;-70
2022/02/06 09:30:31;;;;;;;14.95;2.65;;;;;;;15.21;43.12;100136.91;5030905;28;20033;-70
2022/02/06 09:35:22;;;;;;;14.18;3.95;;;;;;;14.99;43.42;100124.63;5032307;28;20033;-79
2022/02/06 09:37:48;;;;;;;13.52;3.08;;;;;;;14.94;43.83;100133.13;5032292;28;20499;-71
2022/02/06 09:40:15;;;;;;;11.23;2.95;;;;;;;14.78;43.73;100154.34;5032443;28;20112;-70
2022/02/06 09:42:53;;;;;;;18.13;3.50;;;;;;;14.60;44.34;100164.91;5032593;28;20034;-71
2022/02/06 09:45:24;;;;;;;11.07;2.90;;;;;;;15.12;43.53;100147.34;5030997;28;20501;-72
2022/02/06 09:47:52;;;;;;;13.73;2.40;;;;;;;14.75;43.79;100166.88;5035405;28;20064;-70
2022/02/06 09:50:17;;;;;;;10.85;3.08;;;;;;;15.22;43.25;100146.78;5036118;28;20071;-70
2022/02/06 09:52:44;;;;;;;10.40;3.20;;;;;;;15.30;42.97;100143.03;5036209;28;20029;-71
2022/02/06 09:55:16;;;;;;;7.45;2.10;;;;;;;15.18;43.52;100157.69;5026267;28;20541;-71
2022/02/06 10:00:19;;;;;;;9.60;2.90;;;;;;;14.99;43.91;100150.19;5017024;28;20034;-71
2022/02/06 10:02:49;;;;;;;14.82;2.92;;;;;;;14.80;44.15;100166.59;5034954;28;20044;-72
2022/02/06 10:05:15;;;;;;;12.18;2.58;;;;;;;15.22;43.47;100168.78;5035531;28;20029;-71
2022/02/06 10:07:52;;;;;;;12.90;2.80;;;;;;;15.28;43.07;100178.38;5024028;28;20029;-71
2022/02/06 10:10:20;;;;;;;10.93;3.70;;;;;;;15.40;42.99;100164.47;5018548;28;20056;-70
2022/02/06 10:12:47;;;;;;;14.65;3.83;;;;;;;14.77;44.30;100178.31;5014777;28;20065;-70
2022/02/06 10:15:16;;;;;;;15.68;3.50;;;;;;;15.17;43.43;100163.53;5016339;28;20026;-70
2022/02/06 10:17:41;;;;;;;13.65;4.13;;;;;;;15.23;43.52;100182.19;5016035;28;20026;-79
2022/02/06 10:20:16;;;;;;;9.50;3.88;;;;;;;15.61;42.76;100161.44;5024369;28;20022;-73
2022/02/06 10:22:54;;;;;;;10.13;3.03;;;;;;;15.52;43.08;100153.34;5017879;28;20511;-70
2022/02/06 10:25:20;;;;;;;12.43;2.95;;;;;;;15.06;43.69;100195.53;5014464;28;20472;-70
2022/02/06 10:28:10;;;;;;;13.88;3.35;;;;;;;15.50;42.55;100193.41;5014386;28;20046;-70
2022/02/06 10:30:38;;;;;;;8.30;2.53;;;;;;;15.75;42.21;100186.53;5020811;28;20048;-70
2022/02/06 10:33:12;;;;;;;9.63;2.28;;;;;;;15.49;42.33;100189.88;5032714;28;20549;-70
2022/02/06 10:35:41;;;;;;;7.80;2.47;;;;;;;15.69;42.11;100178.91;5022545;28;20055;-76
2022/02/06 10:38:27;;;;;;;13.10;2.63;;;;;;;15.86;41.80;100203.25;5016574;28;20018;-79
2022/02/06 10:41:12;;;;;;;9.63;2.35;;;;;;;15.74;41.92;100178.63;5018240;28;20034;-79
2022/02/06 10:43:52;;;;;;;9.20;2.22;;;;;;;16.27;41.38;100192.69;5042260;28;20075;-81
2022/02/06 10:46:17;;;;;;;8.07;2.83;;;;;;;16.27;41.55;100195.44;5030318;28;20021;-78
2022/02/06 10:48:51;;;;;;;7.32;2.75;;;;;;;15.73;42.35;100193.56;5040826;28;20552;-69
2022/02/06 10:51:36;;;;;;;10.38;3.30;;;;;;;15.94;41.85;100198.69;5040785;28;20368;-70
2022/02/06 10:54:04;;;;;;;11.13;3.05;;;;;;;15.91;42.31;100229.75;5032049;28;20060;-73
2022/02/06 10:56:30;;;;;;;13.35;3.35;;;;;;;16.04;42.00;100233.97;5054015;28;20486;-70
2022/02/06 10:59:01;;;;;;;12.93;3.47;;;;;;;16.06;41.96;100206.84;5051396;28;20037;-70
2022/02/06 11:01:30;;;;;;;8.15;2.70;;;;;;;15.92;42.26;100223.06;5042487;28;20022;-74
2022/02/06 11:04:24;;;;;;;14.68;3.47;;;;;;;16.34;41.38;100232.22;5034447;28;20103;-68
2022/02/06 11:07:05;;;;;;;14.10;3.38;;;;;;;16.55;41.05;100231.84;5033470;28;20021;-69
2022/02/06 11:09:31;;;;;;;12.00;2.85;;;;;;;16.32;41.41;100230.97;5033933;28;20033;-70
2022/02/06 11:12:03;;;;;;;9.35;2.90;;;;;;;16.50;40.53;100221.09;5033995;28;20026;-70
2022/02/06 11:14:31;;;;;;;10.65;3.42;;;;;;;16.22;40.92;100242.59;5034075;28;20052;-71
2022/02/06 11:16:57;;;;;;;15.52;2.22;;;;;;;16.36;40.80;100243.69;5032760;28;20033;-72
2022/02/06 11:19:23;;;;;;;11.48;2.97;;;;;;;16.36;40.67;100245.63;5034039;28;20132;-70
2022/02/06 11:22:08;;;;;;;9.55;2.85;;;;;;;15.75;41.32;100225.09;5033312;28;20519;-71
2022/02/06 11:24:39;;;;;;;11.77;3.28;;;;;;;15.69;40.67;100239.50;5032060;28;20103;-71
2022/02/06 11:27:08;;;;;;;16.70;3.15;;;;;;;16.33;39.61;100235.34;5032315;28;20114;-71
2022/02/06 11:29:34;;;;;;;9.40;3.08;;;;;;;16.35;39.65;100236.56;5033916;28;20117;-71
2022/02/06 11:32:01;;;;;;;11.80;4.30;;;;;;;16.62;39.14;100251.28;5032071;28;20044;-71
2022/02/06 11:34:28;;;;;;;16.98;3.67;;;;;;;16.62;39.15;100240.25;5033489;28;20041;-70
2022/02/06 11:46:19;;;;;;;11.38;2.88;;;;;;;15.94;39.85;100238.06;5033283;28;20068;-70
2022/02/06 11:48:46;;;;;;;18.27;4.10;;;;;;;16.63;39.06;100244.59;5027669;28;20057;-72
2022/02/06 11:51:17;;;;;;;11.77;2.63;;;;;;;16.31;38.68;100256.94;5032538;28;20038;-69
2022/02/06 11:53:43;;;;;;;12.30;2.63;;;;;;;15.97;39.85;100258.63;5033035;28;20480;-71
2022/02/06 11:56:32;;;;;;;11.82;2.65;;;;;;;16.34;38.72;100270.03;5032860;28;20044;-71
2022/02/06 11:59:12;;;;;;;9.18;3.95;;;;;;;16.00;38.90;100261.44;5033210;28;20021;-70
2022/02/06 12:01:42;;;;;;;11.45;3.20;;;;;;;16.18;38.76;100263.78;5030178;28;20060;-70
2022/02/06 12:04:21;;;;;;;12.65;3.15;;;;;;;16.54;38.29;100279.88;5033190;28;20064;-70
2022/02/06 12:06:46;;;;;;;12.73;3.28;;;;;;;16.47;38.65;100293.50;5032064;28;20060;-70
2022/02/06 12:09:17;;;;;;;11.93;2.97;;;;;;;16.84;38.00;100274.56;5032856;28;20480;-70
2022/02/06 12:12:07;;;;;;;11.23;2.78;;;;;;;16.32;38.55;100261.28;5031939;28;20056;-72
2022/02/06 12:14:41;;;;;;;10.52;2.58;;;;;;;16.14;39.12;100285.75;5033124;28;20108;-76
2022/02/06 12:19:42;;;;;;;14.20;3.05;;;;;;;16.27;39.26;100272.63;5033174;28;20022;-73
2022/02/06 12:22:26;;;;;;;6.50;2.50;;;;;;;16.29;39.38;100259.28;5030211;28;20442;-75
2022/02/06 12:24:52;;;;;;;9.82;2.88;;;;;;;16.77;38.96;100288.22;5031352;28;20107;-77
2022/02/06 12:27:26;;;;;;;13.63;3.92;;;;;;;16.96;38.58;100278.31;5031394;28;20424;-72
2022/02/06 12:30:03;;;;;;;5.97;2.50;;;;;;;16.48;38.68;100288.81;5031281;28;20104;-72
2022/02/06 12:32:35;;;;;;;16.77;2.20;;;;;;;16.61;38.14;100288.28;5030169;28;20387;-71
2022/02/06 12:37:57;;;;;;;6.35;2.03;;;;;;;16.87;37.31;100306.94;5032070;28;20028;-72
2022/02/06 12:40:25;;;;;;;9.10;1.67;;;;;;;17.01;37.36;100322.97;5031240;28;20128;-71
2022/02/06 12:42:59;;;;;;;15.93;3.58;;;;;;;16.95;37.24;100329.16;5032404;28;20021;-71
2022/02/06 12:45:26;;;;;;;9.02;2.15;;;;;;;17.24;37.13;100328.53;5032364;28;20034;-73
2022/02/06 12:47:57;;;;;;;10.68;2.33;;;;;;;17.12;37.13;100335.00;5032376;28;20437;-77
2022/02/06 12:50:26;;;;;;;16.15;3.33;;;;;;;17.39;36.89;100344.16;5031583;28;20037;-76
2022/02/06 12:52:53;;;;;;;16.48;2.88;;;;;;;17.61;36.54;100347.28;5031755;28;20037;-71
2022/02/06 12:55:22;;;;;;;8.90;2.58;;;;;;;17.57;37.19;100344.44;5032306;28;20025;-72
2022/02/06 12:57:53;;;;;;;11.95;2.58;;;;;;;17.62;36.71;100344.16;5030847;28;20037;-71
2022/02/06 13:00:34;;;;;;;11.23;2.78;;;;;;;17.15;37.08;100345.31;5031710;28;20104;-77
2022/02/06 13:03:37;;;;;;;10.38;2.53;;;;;;;16.37;38.37;100369.34;5030874;28;20044;-72
2022/02/06 13:06:05;;;;;;;9.57;2.53;;;;;;;16.74;38.41;100374.47;5030872;28;20168;-72
2022/02/06 13:08:35;;;;;;;10.63;2.78;;;;;;;16.46;39.36;100363.63;5031986;28;20024;-82
2022/02/06 13:11:06;;;;;;;9.48;2.50;;;;;;;16.79;38.90;100401.00;5031802;28;20026;-82
2022/02/06 13:13:45;;;;;;;10.90;2.95;;;;;;;15.73;41.32;100387.16;5030906;28;20424;-74
2022/02/06 13:16:46;;;;;;;11.68;3.25;;;;;;;15.30;41.53;100404.50;5031670;28;20040;-73
2022/02/06 13:22:22;;;;;;;7.05;1.90;;;;;;;15.80;40.70;100469.19;5030365;28;20064;-70
2022/02/06 13:25:15;;;;;;;6.55;1.75;;;;;;;15.93;40.27;100456.91;5044374;28;20037;-73
2022/02/06 13:28:15;;;;;;;11.05;2.47;;;;;;;16.02;40.10;100492.53;5050566;28;20486;-72
2022/02/06 13:30:30;;;;;;;8.80;2.83;;;;;;;16.09;39.94;100448.63;5045218;28;20376;-80
2022/02/06 13:33:07;;;;;;;8.88;2.50;;;;;;;16.34;39.94;100433.50;5029975;28;20042;-72
2022/02/06 13:38:12;;;;;;;7.35;1.25;;;;;;;16.20;40.77;100429.59;5031042;28;20558;-70
2022/02/06 13:40:47;;;;;;;6.93;1.80;;;;;;;16.03;40.99;100425.28;5031742;28;20037;-72
2022/02/06 13:43:21;;;;;;;5.30;1.77;;;;;;;15.81;41.55;100438.53;5031641;28;20118;-80
2022/02/06 13:45:48;;;;;;;5.93;1.88;;;;;;;15.66;41.29;100438.53;5031558;28;20026;-70
2022/02/06 13:48:18;;;;;;;6.35;2.50;;;;;;;15.79;41.27;100456.53;5028715;28;20408;-71
2022/02/06 13:50:57;;;;;;;8.02;2.45;;;;;;;15.84;40.94;100464.56;5013763;28;20084;-70
2022/02/06 13:53:25;;;;;;;12.93;2.40;;;;;;;15.95;41.14;100471.16;5032193;28;20037;-70
2022/02/06 13:55:59;;;;;;;11.50;3.22;;;;;;;15.85;41.39;100473.63;5032232;28;20037;-70
2022/02/06 13:58:26;;;;;;;9.50;2.78;;;;;;;16.26;40.24;100475.03;5032562;28;20486;-70
2022/02/06 14:00:59;;;;;;;8.95;2.40;;;;;;;16.08;39.77;100475.38;5030530;28;20049;-70
2022/02/06 14:03:44;;;;;;;12.63;3.33;;;;;;;16.17;39.38;100477.16;5032176;28;20041;-70
2022/02/06 14:06:13;;;;;;;8.98;2.58;;;;;;;16.17;39.18;100485.44;5031946;28;20025;-70
2022/02/06 14:09:00;;;;;;;8.95;2.90;;;;;;;15.64;39.37;100460.91;5032233;28;20052;-70